Time;durP1;ratioP1;P1;durP2;ratioP2;P2;SDS_P1;SDS_P2;PMS_P1;PMS_P2;Temp;Humidity;BMP_temperature;BMP_pressure;BME280_temperature;BME280_humidity;BME280_pressure;Samples;Min_cycle;Max_cycle;Signal;HPM_P1;HPM_P2
2023/04/23 00:03:48;;;;;;;49.92;23.50;;;8.70;99.90;;;;;;20753761;28;20041;-42
2023/04/23 00:13:50;;;;;;;44.00;20.25;;;8.60;99.90;;;;;;20771101;28;20827;-42
2023/04/23 00:23:51;;;;;;;42.78;20.30;;;8.70;99.90;;;;;;20781675;28;20050;-42
2023/04/23 00:33:52;;;;;;;39.55;19.65;;;8.70;99.90;;;;;;20771761;28;20038;-42
2023/04/23 00:43:56;;;;;;;43.28;21.15;;;8.80;99.90;;;;;;20776002;28;20476;-42
2023/04/23 00:53:57;;;;;;;43.25;20.65;;;8.80;99.90;;;;;;20761523;28;20517;-42
2023/04/23 01:03:58;;;;;;;43.33;19.55;;;8.90;99.90;;;;;;20777631;28;20042;-42
2023/04/23 01:14:00;;;;;;;42.33;19.38;;;8.80;99.90;;;;;;20767234;28;20044;-42
2023/04/23 01:24:04;;;;;;;37.28;17.88;;;8.90;99.90;;;;;;20792510;28;20037;-43
2023/04/23 01:34:06;;;;;;;37.90;16.30;;;8.90;99.90;;;;;;20781414;28;20052;-43
2023/04/23 01:44:07;;;;;;;39.47;17.58;;;9.00;99.90;;;;;;20774032;28;20037;-42
2023/04/23 01:54:08;;;;;;;37.22;15.15;;;9.00;99.90;;;;;;20781614;28;20040;-42
2023/04/23 02:04:11;;;;;;;35.58;15.40;;;9.00;99.90;;;;;;20780844;28;20054;-42
2023/04/23 02:14:13;;;;;;;34.05;15.70;;;9.00;99.90;;;;;;20760208;28;20040;-42
2023/04/23 02:24:14;;;;;;;32.53;14.32;;;9.00;99.90;;;;;;20756864;28;20037;-42
2023/04/23 02:34:15;;;;;;;25.20;12.52;;;9.00;99.90;;;;;;21613654;23;20041;-79
2023/04/23 02:44:17;;;;;;;31.05;14.30;;;9.00;99.90;;;;;;20909222;28;20512;-78
2023/04/23 02:54:18;;;;;;;25.38;13.73;;;9.10;99.90;;;;;;20970360;28;20019;-78
2023/04/23 03:04:19;;;;;;;26.02;10.57;;;9.10;99.90;;;;;;20913250;28;20045;-79
2023/04/23 03:14:20;;;;;;;22.60;10.55;;;9.10;99.90;;;;;;20960719;28;20036;-78
2023/04/23 03:24:21;;;;;;;24.33;10.73;;;9.30;96.70;;;;;;20960219;28;20045;-79
2023/04/23 03:34:22;;;;;;;23.55;11.15;;;9.30;97.50;;;;;;20955777;28;20345;-80
2023/04/23 03:44:23;;;;;;;24.30;10.40;;;9.30;95.40;;;;;;20981389;28;20135;-78
2023/04/23 03:54:25;;;;;;;16.23;8.52;;;9.30;95.80;;;;;;21031506;28;20040;-78
2023/04/23 04:04:27;;;;;;;16.02;9.07;;;9.20;98.70;;;;;;21044489;28;20040;-80
2023/04/23 04:14:27;;;;;;;20.33;9.98;;;9.10;99.90;;;;;;21013987;28;20048;-78
2023/04/23 04:24:31;;;;;;;20.65;11.10;;;9.10;99.90;;;;;;21005876;28;20411;-78
2023/04/23 04:34:32;;;;;;;19.10;9.18;;;9.10;99.90;;;;;;21009602;28;20031;-79
2023/04/23 04:44:36;;;;;;;21.70;10.15;;;9.20;99.90;;;;;;20993649;28;20040;-79
2023/04/23 04:54:37;;;;;;;18.52;8.55;;;9.10;99.90;;;;;;21018172;28;20365;-79
2023/04/23 05:04:38;;;;;;;21.30;9.40;;;9.10;99.90;;;;;;21028063;28;20044;-79
2023/04/23 05:14:39;;;;;;;20.45;10.15;;;9.00;99.90;;;;;;21037292;28;20115;-78
2023/04/23 05:24:43;;;;;;;17.73;9.10;;;9.00;99.90;;;;;;21030789;28;20040;-79
2023/04/23 05:34:44;;;;;;;16.88;8.13;;;9.10;99.90;;;;;;21014478;28;20122;-79
2023/04/23 05:44:45;;;;;;;18.75;8.05;;;9.10;99.90;;;;;;21035875;28;20040;-80
2023/04/23 05:54:46;;;;;;;16.05;8.10;;;9.30;99.90;;;;;;21016063;28;20480;-79
2023/04/23 06:04:47;;;;;;;17.52;9.07;;;9.70;99.90;;;;;;21016554;28;20040;-79
2023/04/23 06:14:48;;;;;;;17.52;8.15;;;9.90;97.20;;;;;;20981879;28;20036;-80
2023/04/23 06:24:50;;;;;;;15.13;7.20;;;10.50;81.50;;;;;;21000389;28;20040;-81
2023/04/23 06:34:52;;;;;;;14.90;6.45;;;10.40;65.60;;;;;;20970762;28;20096;-81
2023/04/23 06:44:53;;;;;;;10.90;5.22;;;10.60;57.80;;;;;;20972439;28;20044;-84
2023/04/23 06:54:54;;;;;;;10.88;5.18;;;11.00;45.30;;;;;;20905884;28;20534;-84
2023/04/23 07:04:55;;;;;;;8.43;4.80;;;11.40;37.40;;;;;;20931536;28;20044;-83
2023/04/23 07:14:56;;;;;;;11.68;4.55;;;11.60;27.20;;;;;;20936454;28;20047;-83
2023/04/23 07:24:57;;;;;;;7.30;3.80;;;11.90;25.50;;;;;;20918873;28;20036;-81
2023/04/23 07:34:59;;;;;;;8.77;3.90;;;12.40;14.10;;;;;;20943611;28;20051;-82
2023/04/23 07:45:01;;;;;;;8.98;3.70;;;12.60;6.80;;;;;;20954419;28;20404;-80
2023/04/23 07:55:02;;;;;;;8.20;3.83;;;12.90;6.70;;;;;;20919560;28;20448;-80
2023/04/23 08:05:06;;;;;;;11.13;3.75;;;13.10;4.50;;;;;;20951044;28;20028;-84
2023/04/23 08:15:08;;;;;;;10.30;3.15;;;13.30;1.00;;;;;;20940417;28;20051;-84
2023/04/23 08:25:12;;;;;;;6.22;2.42;;;13.60;1.00;;;;;;20926443;28;20036;-80
2023/04/23 08:35:13;;;;;;;4.72;2.03;;;13.90;1.00;;;;;;20965389;28;20546;-80
2023/04/23 08:45:14;;;;;;;6.22;2.38;;;14.20;1.00;;;;;;20974536;28;20391;-80
2023/04/23 08:55:17;;;;;;;4.18;2.15;;;14.60;1.00;;;;;;20926304;28;20108;-82
2023/04/23 09:05:21;;;;;;;10.73;3.30;;;15.00;1.00;;;;;;20934005;28;20032;-80
2023/04/23 09:15:22;;;;;;;7.57;3.38;;;15.20;1.00;;;;;;20950055;28;20033;-80
2023/04/23 09:25:23;;;;;;;6.03;2.17;;;14.80;1.00;;;;;;20943298;28;20036;-82
2023/04/23 09:35:27;;;;;;;4.82;2.20;;;15.00;1.00;;;;;;20917250;28;20071;-81
2023/04/23 09:45:28;;;;;;;4.97;2.13;;;15.80;1.00;;;;;;20906821;28;20038;-78
2023/04/23 09:55:36;;;;;;;7.45;1.67;;;16.00;1.00;;;;;;20929859;28;20024;-81
2023/04/23 10:05:42;;;;;;;8.70;1.52;;;16.10;1.00;;;;;;20930437;28;20435;-79
2023/04/23 10:15:45;;;;;;;5.55;1.20;;;16.60;1.00;;;;;;20894463;28;20043;-83
2023/04/23 10:25:47;;;;;;;3.90;1.17;;;16.50;1.00;;;;;;20947259;28;20048;-81
2023/04/23 10:35:49;;;;;;;5.80;1.25;;;16.50;1.00;;;;;;20946870;28;20051;-79
2023/04/23 10:45:50;;;;;;;3.85;0.80;;;16.70;1.00;;;;;;20947697;28;20375;-80
2023/04/23 10:56:05;;;;;;;2.50;0.95;;;16.70;1.00;;;;;;20942590;28;20760;-81
2023/04/23 11:06:07;;;;;;;4.18;1.08;;;16.80;1.00;;;;;;20945480;28;20040;-79
2023/04/23 11:16:29;;;;;;;7.03;1.15;;;16.80;1.00;;;;;;20954983;28;20309;-81
2023/04/23 11:26:31;;;;;;;1.98;0.65;;;16.90;1.00;;;;;;20970103;28;21105;-78
2023/04/23 11:36:32;;;;;;;2.20;0.60;;;16.80;1.00;;;;;;21017585;28;20243;-76
2023/04/23 11:46:33;;;;;;;1.45;0.60;;;17.50;1.00;;;;;;20980533;28;20503;-78
2023/04/23 11:56:34;;;;;;;4.97;1.30;;;17.80;1.00;;;;;;20920848;28;20063;-80
2023/04/23 12:06:36;;;;;;;1.58;0.57;;;17.50;1.00;;;;;;20959536;28;20490;-79
2023/04/23 12:16:44;;;;;;;2.53;0.90;;;17.00;1.00;;;;;;20936656;28;20107;-76
2023/04/23 12:26:57;;;;;;;1.83;0.93;;;17.40;1.00;;;;;;20933260;28;20043;-79
2023/04/23 12:36:58;;;;;;;4.22;0.50;;;17.80;1.00;;;;;;20923874;28;20443;-82
2023/04/23 12:47:06;;;;;;;1.17;0.40;;;17.90;1.00;;;;;;20966389;28;20104;-79
2023/04/23 12:57:13;;;;;;;1.45;0.50;;;17.80;1.00;;;;;;20934164;28;20032;-81
2023/04/23 13:07:14;;;;;;;1.47;0.93;;;17.40;1.00;;;;;;20935144;28;20391;-81
2023/04/23 13:17:15;;;;;;;1.77;0.50;;;16.80;1.00;;;;;;20948222;28;20032;-85
2023/04/23 13:27:16;;;;;;;3.45;1.02;;;16.80;1.00;;;;;;20947744;28;20602;-82
2023/04/23 13:37:17;;;;;;;2.53;0.85;;;16.80;1.00;;;;;;20939797;28;20047;-82
2023/04/23 13:47:18;;;;;;;1.88;0.80;;;16.00;1.00;;;;;;20924688;28;20051;-81
2023/04/23 13:57:24;;;;;;;1.73;0.60;;;15.20;1.00;;;;;;20935557;28;20029;-79
2023/04/23 14:07:29;;;;;;;1.85;1.00;;;14.80;1.00;;;;;;20946232;28;20051;-80
2023/04/23 14:17:31;;;;;;;6.78;1.55;;;14.90;1.00;;;;;;20922278;28;20128;-81
2023/04/23 14:27:39;;;;;;;2.17;0.80;;;15.00;1.00;;;;;;20922295;28;20066;-81
2023/04/23 14:37:44;;;;;;;2.20;0.52;;;14.90;1.00;;;;;;20965220;28;20076;-81
2023/04/23 14:47:49;;;;;;;1.88;0.68;;;14.90;1.00;;;;;;20910158;28;20040;-82
2023/04/23 14:57:50;;;;;;;2.42;1.25;;;14.40;1.00;;;;;;20921989;28;20028;-82
2023/04/23 15:07:52;;;;;;;4.78;0.70;;;13.90;1.00;;;;;;20958846;28;20063;-84
2023/04/23 15:17:53;;;;;;;4.68;1.38;;;13.20;22.70;;;;;;20956832;28;20043;-83
2023/04/23 15:27:57;;;;;;;2.92;1.30;;;12.40;76.30;;;;;;20957700;28;20039;-83
2023/04/23 15:37:58;;;;;;;4.50;1.30;;;12.10;99.90;;;;;;20999811;28;20044;-84
2023/04/23 15:48:00;;;;;;;5.63;1.27;;;12.10;99.90;;;;;;20952493;28;20040;-86
2023/04/23 15:58:02;;;;;;;3.13;0.85;;;12.20;99.90;;;;;;20944445;28;21442;-84
2023/04/23 16:08:03;;;;;;;2.85;1.10;;;12.10;99.90;;;;;;20961171;28;20044;-85
2023/04/23 16:18:04;;;;;;;3.60;1.05;;;12.00;99.90;;;;;;20958652;28;20033;-86
2023/04/23 16:28:06;;;;;;;2.13;0.90;;;11.90;99.90;;;;;;20969066;28;20036;-84
2023/04/23 16:38:09;;;;;;;9.07;1.95;;;11.80;99.90;;;;;;20947492;28;20045;-85
2023/04/23 16:48:15;;;;;;;4.60;0.80;;;11.90;99.90;;;;;;20971529;28;20119;-82
2023/04/23 16:58:17;;;;;;;1.85;0.80;;;11.70;99.90;;;;;;20949841;28;20032;-86
2023/04/23 17:08:18;;;;;;;1.27;0.45;;;11.70;99.90;;;;;;20936819;28;20036;-88
2023/04/23 17:18:20;;;;;;;2.10;0.68;;;11.60;99.90;;;;;;20940128;28;20025;-86
2023/04/23 17:28:21;;;;;;;2.20;0.90;;;11.30;99.90;;;;;;20930231;28;20025;-85
2023/04/23 17:38:23;;;;;;;2.38;0.43;;;11.40;99.90;;;;;;20927211;28;20044;-80
2023/04/23 17:48:24;;;;;;;3.83;1.13;;;11.40;99.90;;;;;;20944884;28;20395;-85
2023/04/23 17:58:26;;;;;;;1.52;0.77;;;11.50;99.90;;;;;;20955276;28;20487;-85
2023/04/23 18:08:29;;;;;;;2.67;0.80;;;11.30;99.90;;;;;;20940837;28;20055;-86
2023/04/23 18:18:30;;;;;;;2.15;0.85;;;11.30;99.90;;;;;;20943417;28;20067;-83
2023/04/23 18:28:33;;;;;;;2.40;1.10;;;11.40;99.90;;;;;;20939042;28;20051;-86
2023/04/23 18:38:44;;;;;;;2.00;1.00;;;11.40;99.90;;;;;;20944979;28;20036;-85
2023/04/23 18:48:51;;;;;;;5.03;2.15;;;11.40;99.90;;;;;;20953197;28;20036;-84
2023/04/23 18:58:52;;;;;;;1.85;0.70;;;11.30;99.90;;;;;;20971136;28;20033;-84
2023/04/23 19:08:54;;;;;;;3.47;2.08;;;11.40;99.90;;;;;;20952993;28;20067;-85
2023/04/23 19:18:55;;;;;;;3.60;1.35;;;11.40;99.90;;;;;;20948742;28;20032;-85
2023/04/23 19:28:57;;;;;;;3.78;1.48;;;11.40;99.90;;;;;;20973842;28;20046;-86
2023/04/23 19:38:59;;;;;;;4.22;1.85;;;11.50;99.90;;;;;;20954143;28;20047;-86
2023/04/23 19:49:00;;;;;;;4.78;1.30;;;11.40;99.90;;;;;;20855553;23;20401;-42
2023/04/23 19:59:01;;;;;;;2.63;1.20;;;11.40;99.90;;;;;;20785596;28;20420;-41
2023/04/23 20:19:10;;;;;;;3.58;2.00;;;11.30;99.90;;;;;;20813935;28;20087;-40
2023/04/23 20:29:11;;;;;;;2.80;1.15;;;11.20;99.90;;;;;;20819624;28;20052;-41
2023/04/23 20:39:12;;;;;;;2.08;1.00;;;11.20;99.90;;;;;;20816380;28;20056;-41
2023/04/23 20:49:13;;;;;;;1.88;0.55;;;11.20;99.90;;;;;;20814764;28;20057;-41
2023/04/23 20:59:14;;;;;;;2.30;0.75;;;10.80;99.90;;;;;;20821058;28;20044;-41
2023/04/23 21:09:15;;;;;;;0.80;0.25;;;10.60;99.90;;;;;;20802474;28;20517;-41
2023/04/23 21:19:17;;;;;;;1.00;0.40;;;10.50;99.90;;;;;;20793192;28;20041;-42
2023/04/23 21:29:19;;;;;;;0.98;0.50;;;10.50;99.90;;;;;;20801882;28;20071;-42
2023/04/23 21:39:20;;;;;;;1.02;0.40;;;10.40;99.90;;;;;;20775592;28;20465;-42
2023/04/23 21:49:22;;;;;;;1.50;0.60;;;10.40;99.90;;;;;;20797017;28;20095;-42
2023/04/23 21:59:23;;;;;;;0.75;0.50;;;10.40;99.90;;;;;;20810556;28;20297;-42
2023/04/23 22:09:24;;;;;;;1.67;0.68;;;10.30;99.90;;;;;;20802104;28;20037;-42
2023/04/23 22:19:27;;;;;;;2.33;0.80;;;10.40;99.90;;;;;;20802954;28;20045;-42
2023/04/23 22:29:28;;;;;;;1.95;1.00;;;10.30;99.90;;;;;;20803789;28;20036;-42
2023/04/23 22:39:29;;;;;;;3.30;1.05;;;10.40;99.90;;;;;;20800264;28;20044;-42
2023/04/23 22:49:31;;;;;;;4.22;1.77;;;10.40;99.90;;;;;;20796572;28;20044;-42
2023/04/23 22:59:32;;;;;;;2.53;1.23;;;10.50;99.90;;;;;;20807371;28;21374;-42
2023/04/23 23:09:33;;;;;;;3.53;0.80;;;10.50;99.90;;;;;;20812561;28;20678;-42
2023/04/23 23:19:34;;;;;;;5.78;0.50;;;10.30;99.90;;;;;;20813193;28;20040;-41
2023/04/23 23:29:35;;;;;;;0.75;0.25;;;10.00;99.90;;;;;;20814092;28;20048;-41
2023/04/23 23:39:36;;;;;;;1.90;0.75;;;9.90;99.90;;;;;;20806164;28;20048;-41
2023/04/23 23:49:37;;;;;;;2.53;0.30;;;10.10;99.90;;;;;;20790912;28;21437;-41
2023/04/23 23:59:38;;;;;;;0.60;0.03;;;10.10;99.90;;;;;;20802884;28;20030;-41
